createdAt,value
2018-06-15T00:00:27.715Z,5.30
2018-06-15T00:03:03.072Z,5.50
2018-06-15T00:05:32.747Z,5.50
2018-06-15T00:08:02.079Z,5.50
2018-06-15T00:10:31.073Z,6.17
2018-06-15T00:13:00.131Z,6.07
2018-06-15T00:15:29.112Z,5.57
2018-06-15T00:17:58.207Z,5.70
2018-06-15T00:20:27.201Z,4.93
2018-06-15T00:22:56.154Z,5.77
2018-06-15T00:25:25.167Z,5.00
2018-06-15T00:27:54.419Z,4.73
2018-06-15T00:30:23.422Z,4.53
2018-06-15T00:32:52.455Z,4.70
2018-06-15T00:35:21.604Z,4.80
2018-06-15T00:37:50.563Z,4.60
2018-06-15T00:40:19.579Z,4.43
2018-06-15T00:42:48.696Z,4.20
2018-06-15T00:45:17.382Z,4.23
2018-06-15T00:47:46.418Z,4.30
2018-06-15T00:50:15.451Z,4.30
2018-06-15T00:52:43.953Z,4.37
2018-06-15T00:55:12.937Z,4.70
2018-06-15T00:57:49.178Z,4.40
2018-06-15T01:00:18.798Z,5.20
2018-06-15T01:02:48.035Z,5.70
2018-06-15T01:05:16.986Z,5.40
2018-06-15T01:07:45.996Z,6.10
2018-06-15T01:10:15.270Z,5.50
2018-06-15T01:12:44.287Z,5.70
2018-06-15T01:15:13.281Z,6.30
2018-06-15T01:17:42.315Z,6.43
2018-06-15T01:20:11.326Z,6.50
2018-06-15T01:22:40.348Z,6.60
2018-06-15T01:25:09.334Z,6.80
2018-06-15T01:27:38.454Z,6.63
2018-06-15T01:30:07.862Z,5.57
2018-06-15T01:32:36.886Z,5.60
2018-06-15T01:35:05.983Z,6.20
2018-06-15T01:37:35.335Z,6.07
2018-06-15T01:40:03.937Z,6.77
2018-06-15T01:42:32.942Z,6.60
2018-06-15T01:45:01.922Z,6.40
2018-06-15T01:47:31.394Z,6.03
2018-06-15T01:50:00.376Z,5.73
2018-06-15T01:52:29.357Z,6.40
2018-06-15T01:54:58.391Z,6.47
2018-06-15T01:57:27.416Z,6.30
2018-06-15T01:59:56.764Z,6.60
2018-06-15T02:02:26.015Z,6.57
2018-06-15T02:04:55.260Z,6.10
2018-06-15T02:07:24.548Z,6.93
2018-06-15T02:09:53.823Z,6.07
2018-06-15T02:12:22.903Z,6.30
2018-06-15T02:14:52.090Z,6.73
2018-06-15T02:17:21.298Z,6.33
2018-06-15T02:19:50.302Z,6.13
2018-06-15T02:22:19.269Z,6.30
2018-06-15T02:24:48.306Z,6.30
2018-06-15T02:27:17.311Z,6.83
2018-06-15T02:29:46.275Z,7.40
2018-06-15T02:32:15.272Z,7.53
2018-06-15T02:34:44.258Z,7.63
2018-06-15T02:37:13.240Z,6.50
2018-06-15T02:39:42.243Z,6.97
2018-06-15T02:42:11.264Z,7.90
2018-06-15T02:44:40.844Z,8.17
2018-06-15T02:47:09.871Z,7.80
2018-06-15T02:49:38.926Z,7.57
2018-06-15T02:52:07.964Z,7.37
2018-06-15T02:54:37.207Z,6.73
2018-06-15T02:57:06.303Z,6.10
2018-06-15T02:59:36.279Z,7.10
2018-06-15T03:02:05.463Z,6.30
2018-06-15T03:04:34.429Z,6.63
2018-06-15T03:07:03.467Z,6.20
2018-06-15T03:09:32.455Z,5.97
2018-06-15T03:12:01.419Z,5.40
2018-06-15T03:14:30.412Z,6.10
2018-06-15T03:16:59.439Z,6.77
2018-06-15T03:19:28.678Z,6.80
2018-06-15T03:21:57.719Z,6.50
2018-06-15T03:24:26.253Z,6.80
2018-06-15T03:26:55.227Z,7.17
2018-06-15T03:29:24.219Z,6.90
2018-06-15T03:31:53.219Z,7.33
2018-06-15T03:34:22.223Z,6.80
2018-06-15T03:36:51.239Z,7.60
2018-06-15T03:39:20.492Z,7.53
2018-06-15T03:41:49.696Z,7.87
2018-06-15T03:44:18.779Z,7.80
2018-06-15T03:46:47.827Z,8.10
2018-06-15T03:49:16.816Z,7.93
2018-06-15T03:51:45.831Z,8.43
2018-06-15T03:54:14.903Z,7.93
2018-06-15T03:56:43.887Z,8.17
2018-06-15T03:59:13.137Z,8.77
2018-06-15T04:01:42.376Z,7.97
2018-06-15T04:04:11.355Z,8.60
2018-06-15T04:06:40.339Z,8.17
2018-06-15T04:09:10.251Z,8.97
2018-06-15T04:17:25.750Z,9.30
2018-06-15T04:19:54.796Z,9.33
2018-06-15T04:22:23.812Z,8.93
2018-06-15T04:24:53.412Z,9.33
2018-06-15T04:27:22.391Z,8.60
2018-06-15T04:29:51.347Z,8.60
2018-06-15T04:32:20.763Z,8.60
2018-06-15T04:34:49.746Z,9.50
2018-06-15T04:37:18.730Z,9.50
2018-06-15T04:39:47.827Z,9.00
2018-06-15T04:42:16.867Z,8.73
2018-06-15T04:44:45.822Z,8.93
2018-06-15T04:47:15.240Z,8.63
2018-06-15T04:49:44.218Z,7.83
2018-06-15T04:52:13.175Z,8.70
2018-06-15T04:54:42.182Z,9.00
2018-06-15T04:57:11.162Z,8.03
2018-06-15T04:59:40.119Z,8.17
2018-06-15T05:02:09.134Z,9.07
2018-06-15T05:04:38.119Z,9.20
2018-06-15T05:07:07.110Z,9.80
2018-06-15T05:09:36.138Z,9.27
2018-06-15T05:12:05.154Z,9.33
2018-06-15T05:14:34.135Z,9.17
2018-06-15T05:17:03.178Z,10.50
2018-06-15T05:19:32.780Z,10.93
2018-06-15T05:22:02.010Z,11.40
2018-06-15T05:24:31.303Z,11.23
2018-06-15T05:27:01.612Z,9.53
2018-06-15T05:29:30.868Z,11.37
2018-06-15T05:32:00.553Z,10.60
2018-06-15T05:34:29.828Z,11.03
2018-06-15T05:36:59.067Z,9.80
2018-06-15T05:39:28.316Z,10.53
2018-06-15T05:41:57.597Z,11.07
2018-06-15T05:44:26.394Z,10.57
2018-06-15T05:52:45.550Z,10.47
2018-06-15T05:55:14.580Z,11.07
2018-06-15T05:57:43.558Z,10.03
2018-06-15T06:00:12.564Z,9.90
2018-06-15T06:02:41.616Z,9.27
2018-06-15T06:05:10.584Z,8.93
2018-06-15T06:07:39.615Z,8.53
2018-06-15T06:10:08.687Z,8.77
2018-06-15T06:12:37.663Z,8.83
2018-06-15T06:15:06.679Z,8.57
2018-06-15T06:17:35.679Z,8.33
2018-06-15T06:20:05.558Z,8.63
2018-06-15T06:22:34.736Z,8.13
2018-06-15T06:25:04.851Z,8.97
2018-06-15T06:27:33.895Z,9.57
2018-06-15T06:30:03.268Z,9.80
2018-06-15T06:32:32.295Z,9.50
2018-06-15T06:35:01.320Z,9.37
2018-06-15T06:37:30.346Z,9.27
2018-06-15T06:39:59.302Z,8.30
2018-06-15T06:42:28.302Z,8.50
2018-06-15T06:44:57.355Z,8.53
2018-06-15T06:47:26.398Z,8.20
2018-06-15T06:49:55.586Z,8.50
2018-06-15T06:52:24.735Z,7.63
2018-06-15T06:54:53.786Z,7.37
2018-06-15T06:57:22.791Z,8.37
2018-06-15T06:59:51.839Z,7.20
2018-06-15T07:02:20.795Z,8.13
2018-06-15T07:04:49.836Z,8.50
2018-06-15T07:07:18.842Z,8.47
2018-06-15T07:09:47.803Z,7.53
2018-06-15T07:12:16.868Z,7.80
2018-06-15T07:14:46.074Z,8.30
2018-06-15T07:17:15.803Z,7.63
2018-06-15T07:19:44.830Z,7.67
2018-06-15T07:22:13.856Z,7.20
2018-06-15T07:24:42.382Z,7.03
2018-06-15T07:27:11.618Z,7.57
2018-06-15T07:29:40.667Z,7.70
2018-06-15T07:32:10.040Z,7.43
2018-06-15T07:34:40.605Z,7.27
2018-06-15T07:37:09.634Z,7.27
2018-06-15T07:42:42.098Z,7.60
2018-06-15T07:45:11.220Z,7.60
2018-06-15T07:47:41.426Z,7.47
2018-06-15T07:50:12.862Z,6.33
2018-06-15T07:52:41.861Z,7.30
2018-06-15T07:55:10.834Z,6.47
2018-06-15T07:57:40.302Z,5.10
2018-06-15T08:00:09.370Z,5.53
2018-06-15T08:02:38.459Z,5.63
2018-06-15T08:05:07.454Z,5.40
2018-06-15T08:07:37.194Z,6.03
2018-06-15T08:10:06.312Z,6.00
2018-06-15T08:12:35.698Z,5.23
2018-06-15T08:15:05.171Z,5.47
2018-06-15T08:17:34.172Z,5.50
2018-06-15T08:20:03.240Z,6.27
2018-06-15T08:22:31.930Z,5.83
2018-06-15T08:25:01.176Z,6.00
2018-06-15T08:33:19.603Z,7.83
2018-06-15T08:35:49.535Z,6.80
2018-06-15T08:38:19.000Z,6.70
2018-06-15T08:40:48.238Z,6.17
2018-06-15T08:43:17.540Z,5.60
2018-06-15T08:45:46.820Z,6.37
2018-06-15T08:48:16.151Z,6.03
2018-06-15T08:50:46.324Z,6.07
2018-06-15T08:53:15.602Z,5.80
2018-06-15T08:55:44.813Z,6.10
2018-06-15T08:58:14.099Z,6.07
2018-06-15T09:00:43.699Z,5.97
2018-06-15T09:03:12.909Z,6.70
2018-06-15T09:05:42.170Z,6.83
2018-06-15T09:22:49.642Z,6.30
2018-06-15T09:25:19.024Z,6.10
2018-06-15T09:27:48.280Z,6.00
2018-06-15T09:30:17.554Z,6.07
2018-06-15T09:32:46.908Z,5.23
2018-06-15T09:35:16.196Z,5.00
2018-06-15T09:37:45.491Z,5.30
2018-06-15T09:40:14.771Z,5.63
2018-06-15T09:42:44.055Z,5.73
2018-06-15T09:45:13.380Z,5.63
2018-06-15T09:47:42.652Z,5.90
2018-06-15T09:50:11.414Z,5.40
2018-06-15T09:52:40.680Z,6.27
2018-06-15T09:55:09.908Z,6.47
2018-06-15T09:57:39.216Z,5.97
2018-06-15T10:00:08.266Z,6.97
2018-06-15T10:02:37.298Z,6.63
2018-06-15T10:05:06.358Z,5.93
2018-06-15T10:07:35.375Z,6.40
2018-06-15T10:10:04.331Z,5.97
2018-06-15T10:12:33.326Z,5.80
2018-06-15T10:15:04.428Z,5.50
2018-06-15T10:17:33.560Z,6.87
2018-06-15T10:20:03.126Z,5.43
2018-06-15T10:22:32.372Z,5.83
2018-06-15T10:25:01.629Z,5.77
2018-06-15T10:27:32.212Z,6.20
2018-06-15T10:30:01.492Z,6.10
2018-06-15T10:32:31.163Z,6.00
2018-06-15T10:35:00.409Z,5.40
2018-06-15T10:37:29.965Z,6.23
2018-06-15T10:39:59.179Z,7.33
2018-06-15T10:42:29.183Z,6.17
2018-06-15T10:44:58.515Z,7.77
2018-06-15T10:47:28.984Z,5.97
2018-06-15T10:49:58.014Z,6.03
2018-06-15T10:52:26.982Z,6.37
2018-06-15T10:54:56.118Z,6.43
2018-06-15T10:57:25.259Z,5.60
2018-06-15T10:59:54.237Z,5.13
2018-06-15T11:02:23.294Z,6.33
2018-06-15T11:04:52.347Z,5.30
2018-06-15T11:07:21.536Z,5.97
2018-06-15T11:10:04.805Z,7.13
2018-06-15T11:12:34.830Z,5.90
2018-06-15T11:15:05.214Z,5.67
2018-06-15T11:17:37.817Z,6.37
2018-06-15T11:20:07.132Z,5.93
2018-06-15T11:22:36.344Z,6.17
2018-06-15T11:25:05.637Z,7.27
2018-06-15T11:27:34.855Z,6.03
2018-06-15T11:30:04.237Z,5.87
2018-06-15T11:32:33.477Z,6.93
2018-06-15T11:35:03.082Z,7.33
2018-06-15T11:37:32.030Z,7.20
2018-06-15T11:40:01.539Z,31.03
2018-06-15T11:42:30.864Z,8.37
2018-06-15T11:45:00.157Z,6.97
2018-06-15T11:47:29.403Z,6.07
2018-06-15T11:49:58.673Z,5.60
2018-06-15T11:52:28.240Z,5.77
2018-06-15T11:54:56.994Z,5.90
2018-06-15T11:57:26.324Z,5.80
2018-06-15T11:59:55.503Z,6.10
2018-06-15T12:02:24.800Z,6.20
2018-06-15T12:04:54.046Z,5.80
2018-06-15T12:07:23.320Z,5.73
2018-06-15T12:09:52.596Z,5.20
2018-06-15T12:12:21.779Z,5.80
2018-06-15T12:14:51.024Z,6.30
2018-06-15T12:17:20.293Z,5.97
2018-06-15T12:19:49.531Z,5.77
2018-06-15T12:22:18.231Z,7.07
2018-06-15T12:24:47.523Z,7.60
2018-06-15T12:27:16.767Z,6.80
2018-06-15T12:29:47.139Z,6.87
2018-06-15T12:32:16.395Z,6.77
2018-06-15T12:34:45.393Z,5.13
2018-06-15T12:37:14.714Z,6.30
2018-06-15T12:39:43.727Z,6.10
2018-06-15T12:42:13.592Z,5.80
2018-06-15T12:47:56.732Z,5.30
2018-06-15T12:50:48.719Z,4.60
2018-06-15T12:53:17.758Z,4.97
2018-06-15T12:55:46.856Z,5.07
2018-06-15T12:58:15.846Z,4.97
2018-06-15T13:00:44.847Z,5.53
2018-06-15T13:03:13.843Z,5.43
2018-06-15T13:05:42.879Z,5.70
2018-06-15T13:08:11.851Z,5.10
2018-06-15T13:10:40.876Z,4.53
2018-06-15T13:13:09.888Z,5.40
2018-06-15T13:15:39.404Z,4.97
2018-06-15T13:18:08.666Z,6.40
2018-06-15T13:20:38.996Z,5.77
2018-06-15T13:23:08.713Z,6.07
2018-06-15T13:25:38.459Z,5.50
2018-06-15T13:28:25.440Z,5.63
2018-06-15T13:30:54.720Z,5.70
2018-06-15T13:33:23.963Z,5.63
2018-06-15T13:35:53.224Z,5.83
2018-06-15T13:38:22.340Z,6.00
2018-06-15T13:40:51.383Z,5.37
2018-06-15T13:43:27.786Z,4.80
2018-06-15T13:46:00.327Z,5.13
2018-06-15T13:48:29.367Z,5.30
2018-06-15T13:50:59.294Z,5.00
2018-06-15T13:59:20.058Z,4.50
2018-06-15T14:01:49.079Z,3.97
2018-06-15T14:04:18.687Z,4.50
2018-06-15T14:06:48.163Z,4.40
2018-06-15T14:09:17.434Z,4.43
2018-06-15T14:11:47.154Z,5.10
2018-06-15T14:14:16.159Z,4.40
2018-06-15T14:16:46.251Z,4.83
2018-06-15T14:19:15.222Z,7.90
2018-06-15T14:21:44.887Z,5.13
2018-06-15T14:24:16.293Z,4.47
2018-06-15T14:26:46.251Z,4.90
2018-06-15T14:29:15.277Z,5.17
2018-06-15T14:31:44.285Z,4.80
2018-06-15T14:34:13.282Z,4.37
2018-06-15T14:36:42.327Z,4.70
2018-06-15T14:39:12.184Z,4.70
2018-06-15T14:41:41.473Z,4.53
2018-06-15T14:44:10.470Z,5.07
2018-06-15T14:46:39.635Z,5.63
2018-06-15T14:49:08.635Z,4.67
2018-06-15T14:51:37.826Z,5.40
2018-06-15T14:54:06.835Z,4.43
2018-06-15T14:56:35.824Z,4.60
2018-06-15T14:59:04.927Z,4.80
2018-06-15T15:01:33.433Z,4.90
2018-06-15T15:04:02.430Z,4.83
2018-06-15T15:06:31.455Z,4.67
2018-06-15T15:09:00.477Z,4.60
2018-06-15T15:11:30.548Z,4.40
2018-06-15T15:13:59.722Z,4.67
2018-06-15T15:16:28.883Z,4.97
2018-06-15T15:19:03.461Z,4.80
2018-06-15T15:21:33.904Z,4.60
2018-06-15T15:24:03.071Z,3.93
2018-06-15T15:26:32.851Z,4.80
2018-06-15T15:29:02.175Z,5.03
2018-06-15T15:31:31.560Z,4.87
2018-06-15T15:34:00.976Z,4.70
2018-06-15T15:36:30.494Z,4.20
2018-06-15T15:38:59.574Z,4.63
2018-06-15T15:41:29.676Z,4.40
2018-06-15T15:43:59.064Z,4.20
2018-06-15T15:46:28.309Z,4.33
2018-06-15T15:51:50.420Z,4.63
2018-06-15T15:54:19.610Z,4.83
2018-06-15T15:56:48.959Z,4.53
2018-06-15T15:59:18.370Z,4.40
2018-06-15T16:01:47.453Z,4.30
2018-06-15T16:07:30.164Z,4.20
2018-06-15T16:10:01.042Z,4.30
2018-06-15T16:12:30.362Z,4.37
2018-06-15T16:14:59.946Z,4.10
2018-06-15T16:17:28.933Z,4.47
2018-06-15T16:19:58.174Z,3.73
2018-06-15T16:22:27.282Z,4.23
2018-06-15T16:24:56.269Z,4.50
2018-06-15T16:27:25.380Z,4.13
2018-06-15T16:29:54.351Z,4.27
2018-06-15T16:32:24.778Z,4.43
2018-06-15T16:34:53.734Z,4.07
2018-06-15T16:37:22.760Z,4.30
2018-06-15T16:39:51.727Z,4.27
2018-06-15T16:42:20.834Z,4.17
2018-06-15T16:47:44.830Z,4.00
2018-06-15T16:50:13.920Z,4.20
2018-06-15T16:52:43.050Z,4.20
2018-06-15T16:55:12.204Z,3.90
2018-06-15T16:57:41.263Z,4.37
2018-06-15T17:00:10.235Z,4.30
2018-06-15T17:02:39.260Z,4.47
2018-06-15T17:05:08.238Z,4.37
2018-06-15T17:07:55.612Z,4.30
2018-06-15T17:10:24.610Z,4.30
2018-06-15T17:12:53.595Z,4.53
2018-06-15T17:15:22.592Z,4.33
2018-06-15T17:17:51.583Z,4.40
2018-06-15T17:20:20.575Z,4.90
2018-06-15T17:22:49.594Z,4.53
2018-06-15T17:25:18.555Z,4.40
2018-06-15T17:27:47.574Z,4.33
2018-06-15T17:30:16.882Z,3.83
2018-06-15T17:32:50.246Z,4.07
2018-06-15T17:35:19.474Z,3.43
2018-06-15T17:37:48.597Z,3.43
2018-06-15T17:40:18.290Z,3.70
2018-06-15T17:42:48.181Z,4.03
2018-06-15T17:45:17.469Z,3.80
2018-06-15T17:47:46.699Z,3.70
2018-06-15T17:50:15.936Z,3.73
2018-06-15T17:52:45.851Z,3.57
2018-06-15T17:55:15.095Z,4.00
2018-06-15T17:57:44.077Z,3.90
2018-06-15T18:00:13.523Z,4.13
2018-06-15T18:02:43.584Z,4.47
2018-06-15T18:05:12.871Z,4.10
2018-06-15T18:07:42.163Z,4.50
2018-06-15T18:10:14.404Z,4.43
2018-06-15T18:12:44.202Z,4.10
2018-06-15T18:15:13.472Z,4.63
2018-06-15T18:20:42.608Z,5.20
2018-06-15T18:23:12.092Z,4.83
2018-06-15T18:25:41.707Z,4.97
2018-06-15T18:28:16.458Z,4.80
2018-06-15T18:30:45.575Z,4.80
2018-06-15T18:33:14.991Z,4.43
2018-06-15T18:35:58.605Z,4.87
2018-06-15T18:38:27.864Z,4.90
2018-06-15T18:40:56.903Z,4.93
2018-06-15T18:43:25.898Z,5.20
2018-06-15T18:45:54.934Z,5.10
2018-06-15T18:48:23.991Z,5.37
2018-06-15T18:50:53.967Z,5.47
2018-06-15T18:53:23.016Z,4.97
2018-06-15T18:55:52.544Z,5.13
2018-06-15T18:58:21.595Z,5.43
2018-06-15T19:00:50.788Z,4.93
2018-06-15T19:03:20.511Z,5.70
2018-06-15T19:05:50.129Z,5.73
2018-06-15T19:08:19.452Z,6.20
2018-06-15T19:10:48.447Z,6.00
2018-06-15T19:13:19.222Z,5.37
2018-06-15T19:15:48.420Z,5.80
2018-06-15T19:18:17.443Z,5.40
2018-06-15T19:20:46.469Z,5.63
2018-06-15T19:23:18.283Z,6.03
2018-06-15T19:25:47.274Z,5.77
2018-06-15T19:28:16.299Z,5.70
2018-06-15T19:30:45.298Z,5.90
2018-06-15T19:33:15.707Z,6.10
2018-06-15T19:35:44.711Z,5.73
2018-06-15T19:38:14.045Z,5.93
2018-06-15T19:40:43.034Z,6.30
2018-06-15T19:43:14.176Z,5.70
2018-06-15T19:45:43.182Z,6.03
2018-06-15T19:48:12.209Z,5.63
2018-06-15T19:50:41.567Z,6.03
2018-06-15T19:53:10.674Z,6.07
2018-06-15T19:55:39.863Z,6.03
2018-06-15T20:03:55.203Z,7.47
2018-06-15T20:06:24.378Z,6.43
2018-06-15T20:08:53.366Z,6.27
2018-06-15T20:11:22.408Z,6.80
2018-06-15T20:13:51.434Z,7.27
2018-06-15T20:16:20.435Z,7.10
2018-06-15T20:18:49.399Z,6.93
2018-06-15T20:21:18.464Z,7.70
2018-06-15T20:23:47.498Z,7.67
2018-06-15T20:26:16.616Z,7.87
2018-06-15T20:28:45.570Z,7.97
2018-06-15T20:31:14.595Z,8.23
2018-06-15T20:33:43.535Z,7.87
2018-06-15T20:36:12.641Z,8.60
2018-06-15T20:38:41.635Z,9.20
2018-06-15T20:41:10.662Z,8.80
2018-06-15T20:43:39.699Z,9.13
2018-06-15T20:46:09.074Z,9.27
2018-06-15T20:48:38.059Z,8.83
2018-06-15T20:51:07.402Z,9.60
2018-06-15T20:53:36.436Z,9.43
2018-06-15T20:56:05.567Z,9.63
2018-06-15T20:58:34.681Z,9.80
2018-06-15T21:01:03.687Z,9.93
2018-06-15T21:03:32.656Z,10.10
2018-06-15T21:06:01.655Z,10.13
2018-06-15T21:08:30.799Z,9.60
2018-06-15T21:10:59.812Z,9.20
2018-06-15T21:13:28.803Z,9.77
2018-06-15T21:15:59.326Z,9.83
2018-06-15T21:18:28.351Z,9.60
2018-06-15T21:20:57.349Z,9.00
2018-06-15T21:23:26.311Z,9.20
2018-06-15T21:25:55.298Z,8.97
2018-06-15T21:28:24.254Z,8.97
2018-06-15T21:30:53.231Z,8.73
2018-06-15T21:33:22.242Z,9.23
2018-06-15T21:35:51.226Z,9.00
2018-06-15T21:38:20.191Z,9.23
2018-06-15T21:40:49.219Z,9.93
2018-06-15T21:43:18.182Z,9.17
2018-06-15T21:45:47.178Z,8.33
2018-06-15T21:48:17.150Z,9.17
2018-06-15T21:50:46.188Z,9.30
2018-06-15T21:53:15.425Z,8.23
2018-06-15T21:55:44.503Z,9.07
2018-06-15T21:58:15.032Z,9.33
2018-06-15T22:00:44.126Z,8.43
2018-06-15T22:09:02.271Z,9.10
2018-06-15T22:11:31.424Z,9.47
2018-06-15T22:14:00.474Z,8.60
2018-06-15T22:17:02.948Z,9.13
2018-06-15T22:19:32.071Z,8.97
2018-06-15T22:22:01.102Z,9.40
2018-06-15T22:24:30.350Z,7.90
2018-06-15T22:26:59.371Z,8.80
2018-06-15T22:29:28.347Z,9.33
2018-06-15T22:31:57.404Z,9.27
2018-06-15T22:34:26.407Z,9.47
2018-06-15T22:36:55.453Z,9.07
2018-06-15T22:39:24.414Z,8.93
2018-06-15T22:41:53.483Z,8.67
2018-06-15T22:44:22.443Z,9.17
2018-06-15T22:46:51.443Z,9.97
2018-06-15T22:49:20.447Z,9.40
2018-06-15T22:51:49.438Z,9.37
2018-06-15T22:54:18.395Z,9.53
2018-06-15T22:56:47.402Z,9.37
2018-06-15T22:59:16.353Z,9.80
2018-06-15T23:01:45.403Z,9.73
2018-06-15T23:04:14.404Z,10.10
2018-06-15T23:06:43.842Z,9.63
2018-06-15T23:09:13.231Z,9.73
2018-06-15T23:11:42.783Z,9.67
2018-06-15T23:14:12.062Z,9.80
2018-06-15T23:16:41.126Z,9.87
2018-06-15T23:19:10.117Z,9.37
2018-06-15T23:21:39.237Z,9.80
2018-06-15T23:24:08.473Z,9.37
2018-06-15T23:26:37.702Z,9.63
2018-06-15T23:29:06.666Z,9.93
2018-06-15T23:31:35.703Z,9.07
2018-06-15T23:34:04.671Z,10.17
2018-06-15T23:36:33.704Z,10.20
2018-06-15T23:39:02.967Z,9.47
2018-06-15T23:41:33.504Z,10.47
2018-06-15T23:44:02.663Z,10.80
2018-06-15T23:46:32.841Z,10.37
2018-06-15T23:49:02.096Z,11.30
2018-06-15T23:51:31.399Z,11.37
2018-06-15T23:54:01.855Z,11.43
2018-06-15T23:56:30.943Z,11.70
2018-06-15T23:58:59.977Z,11.07
